Time;durP1;ratioP1;P1;durP2;ratioP2;P2;SDS_P1;SDS_P2;PMS_P1;PMS_P2;Temp;Humidity;BMP_temperature;BMP_pressure;BME280_temperature;BME280_humidity;BME280_pressure;Samples;Min_cycle;Max_cycle;Signal;HPM_P1;HPM_P2
2023/12/21 00:01:07;;;;;;;0.70;0.50;;;4.10;99.90;;;;;;5057342;28;20564;-81
2023/12/21 00:03:34;;;;;;;0.90;0.60;;;4.10;99.90;;;;;;5053069;28;20548;-81
2023/12/21 00:06:02;;;;;;;1.03;0.30;;;4.10;99.90;;;;;;5058555;28;20475;-81
2023/12/21 00:08:29;;;;;;;1.63;0.30;;;4.20;99.90;;;;;;5051727;28;20503;-81
2023/12/21 00:10:57;;;;;;;0.40;0.20;;;4.20;99.90;;;;;;5052817;28;20901;-81
2023/12/21 00:13:26;;;;;;;1.00;0.40;;;4.10;99.90;;;;;;5052678;28;20463;-81
2023/12/21 00:15:53;;;;;;;0.67;0.40;;;4.10;99.90;;;;;;5056512;28;20474;-81
2023/12/21 00:18:20;;;;;;;1.23;0.40;;;4.10;99.90;;;;;;5050713;28;20474;-81
2023/12/21 00:20:47;;;;;;;7.03;0.50;;;4.20;99.90;;;;;;5056989;28;20611;-81
2023/12/21 00:23:16;;;;;;;2.30;0.30;;;4.10;99.90;;;;;;5054114;28;20573;-81
2023/12/21 00:25:43;;;;;;;0.80;0.40;;;4.20;99.90;;;;;;5053747;28;20927;-81
2023/12/21 00:28:10;;;;;;;0.60;0.50;;;4.20;99.90;;;;;;5050696;28;20544;-81
2023/12/21 00:30:37;;;;;;;1.03;0.30;;;4.20;99.90;;;;;;5051625;28;20558;-81
2023/12/21 00:33:04;;;;;;;0.50;0.30;;;4.20;99.90;;;;;;5055804;28;20464;-81
2023/12/21 00:35:31;;;;;;;0.50;0.40;;;4.20;99.90;;;;;;5051534;28;20468;-81
2023/12/21 00:37:58;;;;;;;1.20;0.40;;;4.20;99.90;;;;;;5059751;28;20466;-81
2023/12/21 00:40:26;;;;;;;0.57;0.40;;;4.30;99.90;;;;;;5053320;28;20462;-82
2023/12/21 00:42:53;;;;;;;1.07;0.40;;;4.20;99.90;;;;;;5054657;28;20499;-81
2023/12/21 00:45:21;;;;;;;0.93;0.50;;;4.30;99.90;;;;;;5055507;28;20854;-81
2023/12/21 00:47:48;;;;;;;0.50;0.30;;;4.20;99.90;;;;;;5056090;28;20467;-81
2023/12/21 00:50:15;;;;;;;1.13;0.30;;;4.20;99.90;;;;;;5053496;28;20474;-81
2023/12/21 00:52:42;;;;;;;0.70;0.57;;;4.30;99.90;;;;;;5049796;28;20561;-81
2023/12/21 00:55:10;;;;;;;0.60;0.40;;;4.30;99.90;;;;;;5052430;28;20469;-81
2023/12/21 00:57:38;;;;;;;0.90;0.40;;;4.30;99.90;;;;;;5046711;28;20490;-81
2023/12/21 01:00:07;;;;;;;2.30;0.40;;;4.40;99.90;;;;;;5051230;28;20951;-81
2023/12/21 01:02:34;;;;;;;0.50;0.30;;;4.40;99.90;;;;;;5052247;28;20475;-82
2023/12/21 01:05:01;;;;;;;0.40;0.30;;;4.30;99.90;;;;;;5047897;28;20622;-82
2023/12/21 01:07:28;;;;;;;0.80;0.33;;;4.40;99.90;;;;;;5044902;28;20486;-81
2023/12/21 01:09:55;;;;;;;1.13;0.43;;;4.40;99.90;;;;;;5049454;28;20536;-80
2023/12/21 01:12:22;;;;;;;0.40;0.30;;;4.40;99.90;;;;;;5048590;28;20583;-81
2023/12/21 01:14:50;;;;;;;0.40;0.30;;;4.40;99.90;;;;;;5050294;28;21034;-81
2023/12/21 01:17:17;;;;;;;0.93;0.40;;;4.40;99.90;;;;;;5054243;28;20459;-81
2023/12/21 01:19:44;;;;;;;1.27;0.57;;;4.50;99.90;;;;;;5052055;28;20474;-81
2023/12/21 01:22:11;;;;;;;0.40;0.27;;;4.50;99.90;;;;;;5055775;28;20802;-81
2023/12/21 01:24:39;;;;;;;2.00;1.13;;;4.50;99.90;;;;;;5054695;28;20962;-81
2023/12/21 01:27:06;;;;;;;1.03;0.40;;;4.60;99.90;;;;;;5051605;28;20472;-80
2023/12/21 01:29:33;;;;;;;0.60;0.40;;;4.60;99.90;;;;;;5046913;28;20522;-81
2023/12/21 01:32:01;;;;;;;0.50;0.30;;;4.60;99.90;;;;;;5049861;28;20459;-81
2023/12/21 01:34:28;;;;;;;0.50;0.30;;;4.60;99.90;;;;;;5053512;28;20504;-81
2023/12/21 01:36:55;;;;;;;0.50;0.30;;;4.60;99.90;;;;;;5054057;28;20522;-81
2023/12/21 01:39:23;;;;;;;0.50;0.30;;;4.60;99.90;;;;;;5050469;28;20551;-81
2023/12/21 01:41:50;;;;;;;0.40;0.30;;;4.60;99.90;;;;;;5054621;28;20478;-80
2023/12/21 01:44:17;;;;;;;1.33;0.30;;;4.60;99.90;;;;;;5053418;28;20581;-80
2023/12/21 01:46:45;;;;;;;1.03;0.40;;;4.60;99.90;;;;;;5048908;28;20881;-80
2023/12/21 01:49:14;;;;;;;0.60;0.30;;;4.60;99.90;;;;;;5049074;28;20495;-80
2023/12/21 01:51:42;;;;;;;0.60;0.40;;;4.60;99.90;;;;;;5050837;28;20464;-80
2023/12/21 01:54:09;;;;;;;0.83;0.83;;;4.50;99.90;;;;;;5049799;28;20581;-80
2023/12/21 01:56:36;;;;;;;0.80;0.80;;;4.60;99.90;;;;;;5045030;28;20587;-80
2023/12/21 01:59:03;;;;;;;0.40;0.30;;;4.60;99.90;;;;;;5048334;28;20569;-80
2023/12/21 02:01:31;;;;;;;0.50;0.30;;;4.60;99.90;;;;;;5054539;28;21002;-80
2023/12/21 02:03:58;;;;;;;0.50;0.30;;;4.60;99.90;;;;;;5052302;28;20998;-80
2023/12/21 02:06:26;;;;;;;0.43;0.30;;;4.70;99.90;;;;;;5049930;28;21001;-80
2023/12/21 02:08:53;;;;;;;0.93;0.30;;;4.80;99.90;;;;;;5055125;28;20514;-81
2023/12/21 02:11:20;;;;;;;0.43;0.30;;;4.80;99.90;;;;;;5053958;28;20889;-80
2023/12/21 02:13:47;;;;;;;0.87;0.87;;;4.80;99.90;;;;;;5050930;28;20580;-81
2023/12/21 02:16:20;;;;;;;0.50;0.37;;;4.80;99.90;;;;;;5053890;28;20574;-81
2023/12/21 02:18:48;;;;;;;0.47;0.30;;;4.70;99.90;;;;;;5053601;28;21259;-81
2023/12/21 02:21:16;;;;;;;0.43;0.30;;;4.80;99.90;;;;;;5053067;28;20469;-81
2023/12/21 02:23:46;;;;;;;0.50;0.30;;;4.80;99.90;;;;;;5048309;28;20884;-81
2023/12/21 02:26:18;;;;;;;0.40;0.30;;;4.70;99.90;;;;;;5059405;28;20542;-80
2023/12/21 02:28:45;;;;;;;0.40;0.23;;;4.80;99.90;;;;;;5056004;28;20968;-81
2023/12/21 02:31:12;;;;;;;0.40;0.30;;;4.80;99.90;;;;;;5059784;28;20472;-81
2023/12/21 02:33:39;;;;;;;0.60;0.40;;;4.90;99.90;;;;;;5055925;28;20520;-81
2023/12/21 02:36:07;;;;;;;0.40;0.30;;;4.80;99.90;;;;;;5057971;28;20521;-81
2023/12/21 02:38:34;;;;;;;0.40;0.30;;;4.90;99.90;;;;;;5053669;28;20460;-81
2023/12/21 02:41:01;;;;;;;0.50;0.20;;;4.90;99.90;;;;;;5056094;28;21847;-81
2023/12/21 02:43:30;;;;;;;1.33;0.40;;;4.90;99.90;;;;;;5050368;28;20908;-81
2023/12/21 02:45:57;;;;;;;0.50;0.30;;;5.00;99.90;;;;;;5054899;28;20474;-81
2023/12/21 02:48:24;;;;;;;0.50;0.30;;;5.10;99.90;;;;;;5056453;28;20521;-81
2023/12/21 02:50:51;;;;;;;1.10;0.40;;;5.00;99.90;;;;;;5056849;28;20791;-81
2023/12/21 02:53:18;;;;;;;0.60;0.40;;;5.00;99.90;;;;;;5058395;28;20499;-81
2023/12/21 02:55:45;;;;;;;0.40;0.23;;;5.00;99.90;;;;;;5055908;28;20594;-82
2023/12/21 02:58:12;;;;;;;0.40;0.20;;;5.10;99.90;;;;;;5059259;28;20587;-81
2023/12/21 03:00:40;;;;;;;0.50;0.30;;;5.10;99.90;;;;;;5053805;28;20573;-81
2023/12/21 03:03:07;;;;;;;0.40;0.30;;;5.10;99.90;;;;;;5055295;28;20701;-81
2023/12/21 03:05:34;;;;;;;1.80;1.70;;;5.10;99.90;;;;;;5057728;28;20592;-81
2023/12/21 03:08:01;;;;;;;0.40;0.30;;;5.10;99.90;;;;;;5057028;28;20475;-81
2023/12/21 03:10:28;;;;;;;0.40;0.30;;;5.20;99.90;;;;;;5054692;28;20460;-81
2023/12/21 03:12:55;;;;;;;0.40;0.20;;;5.10;99.90;;;;;;5056347;28;20536;-81
2023/12/21 03:15:22;;;;;;;0.40;0.30;;;5.10;99.90;;;;;;5057350;28;20994;-82
2023/12/21 03:17:50;;;;;;;0.40;0.30;;;4.90;99.90;;;;;;5054626;28;20548;-82
2023/12/21 03:20:17;;;;;;;0.37;0.20;;;5.00;99.90;;;;;;5061744;28;20528;-81
2023/12/21 03:22:44;;;;;;;7.73;0.87;;;5.00;99.90;;;;;;5052969;28;20558;-81
2023/12/21 03:25:11;;;;;;;0.50;0.30;;;5.00;99.90;;;;;;5054849;28;20615;-81
2023/12/21 03:27:38;;;;;;;4.00;0.37;;;5.00;99.90;;;;;;5047410;28;20563;-81
2023/12/21 03:30:06;;;;;;;0.63;0.30;;;5.10;99.90;;;;;;5049395;28;20492;-81
2023/12/21 03:32:33;;;;;;;0.40;0.30;;;5.10;99.90;;;;;;5051729;28;20521;-81
2023/12/21 03:35:02;;;;;;;0.70;0.37;;;5.10;99.90;;;;;;5053815;28;20521;-81
2023/12/21 03:37:29;;;;;;;0.87;0.30;;;5.10;99.90;;;;;;5053267;28;20583;-81
2023/12/21 03:39:57;;;;;;;0.50;0.30;;;5.10;99.90;;;;;;5055816;28;20459;-81
2023/12/21 03:42:24;;;;;;;1.70;0.50;;;5.10;99.90;;;;;;5057253;28;20510;-81
2023/12/21 03:44:51;;;;;;;0.40;0.20;;;5.10;99.90;;;;;;5049376;28;21928;-81
2023/12/21 03:47:18;;;;;;;0.40;0.30;;;5.00;99.90;;;;;;5057062;28;20557;-81
2023/12/21 03:49:45;;;;;;;0.40;0.30;;;5.00;99.90;;;;;;5056126;28;20482;-81
2023/12/21 03:52:13;;;;;;;0.40;0.37;;;5.00;99.90;;;;;;5053281;28;20944;-81
2023/12/21 03:54:40;;;;;;;0.40;0.20;;;4.90;99.90;;;;;;5047208;28;20942;-81
2023/12/21 03:57:07;;;;;;;0.50;0.30;;;4.90;99.90;;;;;;5073885;28;20482;-82
2023/12/21 03:59:35;;;;;;;0.40;0.30;;;4.90;99.90;;;;;;5079379;28;20459;-82
2023/12/21 04:02:02;;;;;;;0.50;0.37;;;4.90;99.90;;;;;;5082492;28;20447;-82
2023/12/21 04:04:31;;;;;;;0.40;0.30;;;4.80;99.90;;;;;;5075463;28;20875;-82
2023/12/21 04:06:58;;;;;;;0.60;0.30;;;4.80;99.90;;;;;;5077502;28;20815;-82
2023/12/21 04:09:26;;;;;;;0.50;0.30;;;4.80;99.90;;;;;;5077195;28;20528;-82
2023/12/21 04:11:53;;;;;;;0.50;0.30;;;4.70;99.90;;;;;;5076025;28;20447;-82
2023/12/21 04:14:20;;;;;;;1.13;0.30;;;4.70;99.90;;;;;;5075410;28;20459;-82
2023/12/21 04:16:48;;;;;;;2.73;0.40;;;4.60;99.90;;;;;;5071964;28;20513;-82
2023/12/21 04:19:15;;;;;;;0.40;0.20;;;4.70;99.90;;;;;;5071430;28;20469;-82
2023/12/21 04:21:43;;;;;;;0.40;0.23;;;4.60;99.90;;;;;;5081645;28;20462;-82
2023/12/21 04:24:10;;;;;;;0.40;0.30;;;4.70;99.90;;;;;;5076106;28;20466;-82
2023/12/21 04:26:39;;;;;;;0.70;0.50;;;4.70;99.90;;;;;;5081986;28;20480;-82
2023/12/21 04:29:07;;;;;;;0.43;0.30;;;4.70;99.90;;;;;;5077030;28;20531;-82
2023/12/21 04:31:34;;;;;;;0.40;0.30;;;4.70;99.90;;;;;;5068242;28;20463;-82
2023/12/21 04:34:01;;;;;;;0.40;0.20;;;4.70;99.90;;;;;;5082770;28;21012;-82
2023/12/21 04:36:28;;;;;;;0.40;0.20;;;4.70;99.90;;;;;;5066080;28;20474;-82
2023/12/21 04:38:56;;;;;;;0.50;0.30;;;4.70;99.90;;;;;;5071532;28;20458;-82
2023/12/21 04:41:23;;;;;;;0.40;0.20;;;4.70;99.90;;;;;;5077833;28;20517;-82
2023/12/21 04:43:51;;;;;;;0.30;0.20;;;4.70;99.90;;;;;;5073975;28;21314;-82
2023/12/21 04:46:19;;;;;;;0.50;0.43;;;4.70;99.90;;;;;;5075785;28;20549;-82
2023/12/21 04:48:46;;;;;;;0.40;0.30;;;4.70;99.90;;;;;;5065364;28;20513;-82
2023/12/21 04:51:15;;;;;;;0.30;0.20;;;4.60;99.90;;;;;;5079512;28;20506;-82
2023/12/21 04:53:43;;;;;;;0.40;0.30;;;4.60;99.90;;;;;;5081032;28;20459;-82
2023/12/21 04:56:10;;;;;;;0.40;0.20;;;4.60;99.90;;;;;;5079307;28;20518;-82
2023/12/21 04:58:37;;;;;;;0.30;0.20;;;4.60;99.90;;;;;;5062758;28;20476;-82
2023/12/21 05:01:07;;;;;;;0.40;0.20;;;4.60;99.90;;;;;;5073150;28;20463;-82
2023/12/21 05:03:34;;;;;;;0.60;0.20;;;4.60;99.90;;;;;;5066517;28;20468;-82
2023/12/21 05:06:02;;;;;;;0.50;0.30;;;4.50;99.90;;;;;;5082907;28;20978;-82
2023/12/21 05:08:29;;;;;;;0.40;0.20;;;4.50;99.90;;;;;;5079140;28;20524;-81
2023/12/21 05:10:56;;;;;;;0.40;0.23;;;4.60;99.90;;;;;;5071433;28;20489;-82
2023/12/21 05:13:23;;;;;;;0.40;0.20;;;4.50;99.90;;;;;;5051011;28;20503;-82
2023/12/21 05:15:50;;;;;;;0.40;0.30;;;4.50;99.90;;;;;;5040248;28;20639;-82
2023/12/21 05:18:19;;;;;;;0.40;0.20;;;4.50;99.90;;;;;;5058917;28;20475;-82
2023/12/21 05:20:45;;;;;;;0.50;0.20;;;4.60;99.90;;;;;;5067505;28;20514;-82
2023/12/21 05:23:12;;;;;;;0.70;0.30;;;4.60;99.90;;;;;;5066716;28;20458;-82
2023/12/21 05:25:39;;;;;;;0.37;0.20;;;4.60;99.90;;;;;;5063985;28;20826;-82
2023/12/21 05:28:07;;;;;;;0.40;0.30;;;4.60;99.90;;;;;;5074140;28;20512;-82
2023/12/21 05:30:34;;;;;;;0.77;0.40;;;4.60;99.90;;;;;;5070450;28;20840;-82
2023/12/21 05:33:01;;;;;;;0.60;0.30;;;4.50;99.90;;;;;;5073144;28;20532;-82
2023/12/21 05:35:29;;;;;;;0.40;0.20;;;4.50;99.90;;;;;;5086444;28;20919;-82
2023/12/21 05:37:56;;;;;;;0.60;0.30;;;4.50;99.90;;;;;;5078833;28;20563;-82
2023/12/21 05:40:23;;;;;;;0.40;0.30;;;4.50;99.90;;;;;;5076806;28;21036;-82
2023/12/21 05:42:50;;;;;;;0.40;0.20;;;4.50;99.90;;;;;;5069666;28;21002;-82
2023/12/21 05:45:17;;;;;;;0.50;0.20;;;4.50;99.90;;;;;;5083629;28;20478;-82
2023/12/21 05:47:44;;;;;;;0.40;0.30;;;4.50;99.90;;;;;;5070665;28;20783;-81
2023/12/21 05:50:11;;;;;;;0.50;0.20;;;4.50;99.90;;;;;;5076199;28;20467;-80
2023/12/21 05:52:39;;;;;;;0.97;0.40;;;4.60;99.90;;;;;;5065456;28;20521;-80
2023/12/21 05:55:07;;;;;;;1.90;0.30;;;4.60;99.90;;;;;;5081144;28;20459;-80
2023/12/21 05:57:35;;;;;;;0.40;0.20;;;4.60;99.90;;;;;;5071906;28;20494;-80
2023/12/21 06:00:03;;;;;;;0.40;0.20;;;4.60;99.90;;;;;;5073554;28;20460;-81
2023/12/21 06:02:30;;;;;;;0.40;0.20;;;4.70;99.90;;;;;;5073256;28;21057;-81
2023/12/21 06:04:57;;;;;;;0.40;0.30;;;4.60;99.90;;;;;;5070981;28;20483;-81
2023/12/21 06:07:24;;;;;;;0.40;0.20;;;4.70;99.90;;;;;;5074875;28;20466;-81
2023/12/21 06:09:54;;;;;;;0.40;0.30;;;4.70;99.90;;;;;;5079775;27;20537;-81
2023/12/21 06:12:21;;;;;;;0.70;0.30;;;4.70;99.90;;;;;;5076588;28;20524;-81
2023/12/21 06:14:49;;;;;;;0.50;0.30;;;4.60;99.90;;;;;;5077009;28;20518;-81
2023/12/21 06:17:16;;;;;;;0.60;0.30;;;4.70;99.90;;;;;;5067089;28;20471;-81
2023/12/21 06:19:43;;;;;;;0.40;0.20;;;4.60;99.90;;;;;;5067165;28;20907;-81
2023/12/21 06:22:10;;;;;;;0.40;0.30;;;4.70;99.90;;;;;;5077379;28;20448;-81
2023/12/21 06:24:37;;;;;;;0.77;0.30;;;4.60;99.90;;;;;;5075613;28;20470;-81
2023/12/21 06:27:05;;;;;;;0.50;0.30;;;4.60;99.90;;;;;;5080086;28;20545;-81
2023/12/21 06:29:32;;;;;;;0.73;0.30;;;4.50;99.90;;;;;;5078164;28;20988;-81
2023/12/21 06:31:59;;;;;;;1.07;0.30;;;4.50;99.90;;;;;;5079530;28;20493;-81
2023/12/21 06:34:27;;;;;;;0.67;0.30;;;4.50;99.90;;;;;;5069203;28;20943;-81
2023/12/21 06:36:54;;;;;;;0.60;0.40;;;4.50;99.90;;;;;;5070093;28;20482;-81
2023/12/21 06:39:21;;;;;;;1.53;0.63;;;4.50;99.90;;;;;;5076305;28;20530;-81
2023/12/21 06:41:48;;;;;;;0.60;0.33;;;4.50;99.90;;;;;;5077989;28;20814;-80
2023/12/21 06:44:16;;;;;;;0.43;0.20;;;4.60;99.90;;;;;;5070926;28;20810;-80
2023/12/21 06:46:43;;;;;;;0.40;0.30;;;4.50;99.90;;;;;;5080162;28;20486;-80
2023/12/21 06:49:11;;;;;;;0.60;0.30;;;4.60;99.90;;;;;;5077363;28;20830;-81
2023/12/21 06:51:38;;;;;;;0.40;0.20;;;4.60;99.90;;;;;;5076322;28;20686;-80
2023/12/21 06:54:06;;;;;;;0.40;0.30;;;4.70;99.90;;;;;;5086434;28;20522;-81
2023/12/21 06:56:33;;;;;;;0.40;0.30;;;4.70;99.90;;;;;;5078513;28;20806;-81
2023/12/21 06:59:00;;;;;;;0.40;0.30;;;4.70;99.90;;;;;;5074971;28;20439;-81
2023/12/21 07:01:29;;;;;;;0.33;0.20;;;4.70;99.90;;;;;;5075927;28;20536;-81
2023/12/21 07:03:56;;;;;;;0.47;0.27;;;4.80;99.90;;;;;;5080232;28;21086;-81
2023/12/21 07:06:25;;;;;;;1.00;0.30;;;4.80;99.90;;;;;;5080694;28;20490;-81
2023/12/21 07:08:52;;;;;;;0.60;0.30;;;4.90;99.90;;;;;;5064445;28;20456;-81
2023/12/21 07:11:19;;;;;;;0.40;0.27;;;4.90;99.90;;;;;;5069457;28;20844;-81
2023/12/21 07:13:46;;;;;;;0.30;0.20;;;5.00;99.90;;;;;;5069873;28;20517;-81
2023/12/21 07:16:13;;;;;;;0.50;0.20;;;5.00;99.90;;;;;;5076951;28;20532;-81
2023/12/21 07:18:42;;;;;;;0.40;0.20;;;5.00;99.90;;;;;;5078988;28;20872;-81
2023/12/21 07:21:09;;;;;;;0.30;0.20;;;5.10;99.90;;;;;;5078708;28;20519;-81
2023/12/21 07:23:36;;;;;;;0.50;0.50;;;5.10;99.90;;;;;;5072713;28;20475;-81
2023/12/21 07:26:04;;;;;;;0.93;0.20;;;5.10;99.90;;;;;;5077124;28;20567;-81
2023/12/21 07:28:31;;;;;;;0.30;0.20;;;5.10;99.90;;;;;;5084071;28;20939;-81
2023/12/21 07:30:59;;;;;;;0.50;0.40;;;5.20;99.90;;;;;;5073923;28;20520;-81
2023/12/21 07:33:26;;;;;;;3.20;1.50;;;5.20;99.90;;;;;;5079335;28;20470;-81
2023/12/21 07:35:54;;;;;;;2.80;1.43;;;5.30;99.90;;;;;;5081607;28;20455;-81
2023/12/21 07:38:21;;;;;;;6.80;4.87;;;5.40;99.90;;;;;;5079457;28;20512;-81
2023/12/21 07:40:48;;;;;;;0.83;0.53;;;5.40;99.90;;;;;;5070713;28;20994;-81
2023/12/21 07:43:15;;;;;;;1.17;1.17;;;5.40;99.90;;;;;;5069112;28;20834;-81
2023/12/21 07:45:42;;;;;;;0.50;0.40;;;5.50;99.90;;;;;;5066154;28;20519;-80
2023/12/21 07:48:09;;;;;;;0.60;0.47;;;5.60;99.90;;;;;;5069149;28;20513;-81
2023/12/21 07:50:36;;;;;;;0.40;0.30;;;5.60;99.90;;;;;;5077421;28;20456;-81
2023/12/21 07:53:05;;;;;;;0.43;0.30;;;5.60;99.90;;;;;;5075409;28;20449;-81
2023/12/21 07:55:32;;;;;;;0.73;0.70;;;5.70;99.90;;;;;;5083977;28;20458;-81
2023/12/21 07:57:59;;;;;;;0.40;0.40;;;5.70;99.90;;;;;;5078603;28;20455;-81
2023/12/21 08:00:26;;;;;;;0.60;0.30;;;5.80;99.90;;;;;;5079800;28;20492;-81
2023/12/21 08:02:53;;;;;;;0.60;0.40;;;5.80;99.90;;;;;;5078598;28;20451;-81
2023/12/21 08:05:22;;;;;;;0.40;0.37;;;5.80;99.90;;;;;;5078300;28;20470;-81
2023/12/21 08:07:49;;;;;;;0.50;0.40;;;5.80;99.90;;;;;;5076711;28;20563;-81
2023/12/21 08:10:18;;;;;;;0.40;0.30;;;5.90;99.90;;;;;;5074911;28;21133;-81
2023/12/21 08:12:46;;;;;;;1.63;0.30;;;6.00;99.90;;;;;;5066448;28;20500;-81
2023/12/21 08:15:14;;;;;;;0.70;0.30;;;6.00;99.90;;;;;;5067025;28;20901;-81
2023/12/21 08:17:42;;;;;;;0.57;0.50;;;6.10;99.90;;;;;;5067698;28;20456;-81
2023/12/21 08:20:12;;;;;;;1.20;0.50;;;6.20;99.90;;;;;;5074868;28;20919;-81
2023/12/21 08:22:40;;;;;;;0.80;0.40;;;6.20;99.90;;;;;;5065227;28;20469;-81
2023/12/21 08:25:07;;;;;;;0.80;0.70;;;6.20;99.90;;;;;;5078466;28;20953;-81
2023/12/21 08:27:35;;;;;;;1.10;0.30;;;6.30;99.90;;;;;;5073080;28;20461;-81
2023/12/21 08:30:03;;;;;;;0.40;0.30;;;6.40;99.90;;;;;;5077727;28;20546;-81
2023/12/21 08:32:30;;;;;;;0.50;0.40;;;6.40;99.90;;;;;;5072410;28;20585;-81
2023/12/21 08:34:57;;;;;;;0.50;0.30;;;6.40;99.90;;;;;;5078820;28;20452;-81
2023/12/21 08:37:25;;;;;;;1.67;1.00;;;6.40;99.90;;;;;;5067342;28;20454;-81
2023/12/21 08:39:52;;;;;;;0.97;0.30;;;6.40;99.90;;;;;;5070009;28;21017;-81
2023/12/21 08:42:19;;;;;;;2.10;1.20;;;6.40;99.90;;;;;;5075878;28;21317;-81
2023/12/21 08:44:49;;;;;;;1.30;0.60;;;6.40;99.90;;;;;;5067741;28;20462;-81
2023/12/21 08:47:16;;;;;;;2.77;0.60;;;6.40;99.90;;;;;;5081353;28;20510;-81
2023/12/21 08:49:42;;;;;;;2.97;0.83;;;6.40;99.90;;;;;;5066412;28;20475;-81
2023/12/21 08:52:09;;;;;;;0.43;0.30;;;6.40;99.90;;;;;;5076909;28;20883;-81
2023/12/21 08:54:36;;;;;;;0.70;0.60;;;6.40;99.90;;;;;;5078119;28;20465;-81
2023/12/21 08:57:03;;;;;;;2.67;0.83;;;6.40;99.90;;;;;;5073996;28;20714;-81
2023/12/21 08:59:30;;;;;;;1.10;0.40;;;6.40;99.90;;;;;;5080085;28;20854;-81
2023/12/21 09:01:59;;;;;;;6.50;2.40;;;6.40;99.90;;;;;;5076624;28;20469;-81
2023/12/21 09:04:26;;;;;;;2.30;0.50;;;6.40;99.90;;;;;;5082732;28;20786;-81
2023/12/21 09:06:53;;;;;;;1.60;0.50;;;6.50;99.90;;;;;;5066618;28;20773;-81
2023/12/21 09:09:20;;;;;;;4.83;1.43;;;6.50;99.90;;;;;;5073537;28;20463;-81
2023/12/21 09:11:49;;;;;;;2.90;1.07;;;6.50;99.90;;;;;;5080753;28;20577;-81
2023/12/21 09:14:16;;;;;;;3.17;0.93;;;6.60;99.90;;;;;;5084633;28;20503;-81
2023/12/21 09:16:43;;;;;;;0.70;0.30;;;6.60;99.90;;;;;;5076796;28;20871;-81
2023/12/21 09:19:11;;;;;;;0.73;0.30;;;6.60;99.90;;;;;;5080096;28;21008;-81
2023/12/21 09:21:39;;;;;;;0.43;0.30;;;6.60;99.90;;;;;;5081796;28;20521;-81
2023/12/21 09:24:06;;;;;;;0.40;0.30;;;6.60;99.90;;;;;;5075819;28;20459;-81
2023/12/21 09:26:33;;;;;;;1.20;0.40;;;6.70;99.90;;;;;;5081605;28;20701;-81
2023/12/21 09:29:03;;;;;;;0.40;0.20;;;6.70;99.90;;;;;;5075918;28;20459;-81
2023/12/21 09:31:30;;;;;;;0.40;0.30;;;6.80;99.90;;;;;;5070457;28;20463;-81
2023/12/21 09:33:59;;;;;;;0.50;0.30;;;6.80;99.90;;;;;;5071581;28;20734;-81
2023/12/21 09:36:27;;;;;;;0.40;0.30;;;6.80;99.90;;;;;;5076481;28;20459;-81
2023/12/21 09:38:54;;;;;;;0.70;0.70;;;6.80;99.90;;;;;;5074510;28;20449;-81
2023/12/21 09:41:21;;;;;;;0.80;0.40;;;6.90;99.90;;;;;;5075535;28;20465;-81
2023/12/21 09:43:50;;;;;;;0.50;0.40;;;7.00;99.90;;;;;;5079985;28;20459;-82
2023/12/21 09:46:18;;;;;;;0.90;0.43;;;7.00;99.90;;;;;;5077178;28;20738;-82
2023/12/21 09:48:46;;;;;;;0.60;0.40;;;7.00;99.90;;;;;;5068130;28;20843;-81
2023/12/21 09:51:14;;;;;;;0.50;0.40;;;7.10;99.90;;;;;;5070956;28;21007;-82
2023/12/21 09:53:44;;;;;;;0.70;0.30;;;7.20;99.90;;;;;;5083917;28;20504;-81
2023/12/21 09:56:13;;;;;;;0.93;0.60;;;7.20;99.90;;;;;;5084442;28;20502;-82
2023/12/21 09:58:42;;;;;;;1.67;0.50;;;7.10;99.90;;;;;;5080006;28;20838;-82
2023/12/21 10:01:09;;;;;;;1.00;0.73;;;7.10;99.90;;;;;;5085370;28;20498;-81
2023/12/21 10:03:38;;;;;;;0.50;0.40;;;7.10;99.90;;;;;;5076448;28;20444;-81
2023/12/21 10:06:05;;;;;;;0.60;0.40;;;7.10;99.90;;;;;;5086211;28;20971;-81
2023/12/21 10:08:33;;;;;;;0.50;0.40;;;7.10;99.90;;;;;;5075998;28;20697;-81
2023/12/21 10:11:06;;;;;;;0.80;0.63;;;7.10;99.90;;;;;;5074176;28;20873;-81
2023/12/21 10:13:33;;;;;;;0.40;0.30;;;7.10;99.90;;;;;;5078278;28;20469;-81
2023/12/21 10:16:00;;;;;;;1.10;0.63;;;7.20;99.90;;;;;;5077045;28;20463;-81
2023/12/21 10:18:27;;;;;;;1.53;0.57;;;7.20;99.90;;;;;;5071540;28;20505;-81
2023/12/21 10:20:55;;;;;;;0.50;0.43;;;7.10;99.90;;;;;;5074554;28;20460;-81
2023/12/21 10:23:22;;;;;;;2.60;0.87;;;7.00;99.90;;;;;;5070718;28;20524;-81
2023/12/21 10:25:50;;;;;;;0.80;0.50;;;7.00;99.90;;;;;;5071595;28;20454;-81
2023/12/21 10:28:22;;;;;;;0.63;0.37;;;7.00;99.90;;;;;;5074440;28;20502;-80
2023/12/21 10:30:54;;;;;;;0.50;0.30;;;7.00;99.90;;;;;;5075683;28;20491;-80
2023/12/21 10:33:21;;;;;;;0.83;0.40;;;7.00;99.90;;;;;;5080382;28;20451;-81
2023/12/21 10:35:48;;;;;;;3.40;0.50;;;7.00;99.90;;;;;;5080954;28;20563;-81
2023/12/21 10:38:15;;;;;;;0.60;0.40;;;7.00;99.90;;;;;;5069503;28;20444;-81
2023/12/21 10:40:45;;;;;;;0.60;0.40;;;6.90;99.90;;;;;;5071898;28;20922;-81
2023/12/21 10:43:14;;;;;;;0.50;0.37;;;7.00;99.90;;;;;;5069797;28;20996;-80
2023/12/21 10:45:44;;;;;;;0.40;0.20;;;7.10;99.90;;;;;;5082776;28;20455;-81
2023/12/21 10:48:13;;;;;;;0.60;0.20;;;7.10;99.90;;;;;;5074063;28;20899;-82
2023/12/21 10:50:40;;;;;;;0.30;0.20;;;7.10;99.90;;;;;;5079877;28;20967;-81
2023/12/21 10:53:10;;;;;;;0.63;0.20;;;7.10;99.90;;;;;;5072684;28;20460;-81
2023/12/21 10:55:38;;;;;;;0.60;0.27;;;7.20;99.90;;;;;;5071632;28;20482;-81
2023/12/21 10:58:06;;;;;;;0.50;0.20;;;7.20;99.90;;;;;;5077439;28;20526;-82
2023/12/21 11:00:34;;;;;;;0.30;0.20;;;7.30;99.90;;;;;;5071226;28;20471;-81
2023/12/21 11:03:07;;;;;;;0.40;0.23;;;7.50;99.90;;;;;;5071089;28;20466;-81
2023/12/21 11:05:35;;;;;;;0.43;0.30;;;7.50;99.90;;;;;;5083426;28;20465;-82
2023/12/21 11:08:03;;;;;;;0.60;0.30;;;7.50;99.90;;;;;;5069321;28;20488;-82
2023/12/21 11:10:32;;;;;;;0.43;0.27;;;7.50;99.90;;;;;;5082403;28;20462;-82
2023/12/21 11:12:59;;;;;;;0.40;0.20;;;7.40;99.90;;;;;;5075169;28;20444;-81
2023/12/21 11:15:26;;;;;;;4.73;0.90;;;7.40;99.90;;;;;;5066470;28;20558;-81
2023/12/21 11:17:57;;;;;;;1.23;0.20;;;7.40;99.90;;;;;;5071507;28;20448;-81
2023/12/21 11:20:30;;;;;;;0.40;0.20;;;7.40;99.90;;;;;;5074441;28;21241;-82
2023/12/21 11:22:57;;;;;;;0.40;0.20;;;7.40;99.90;;;;;;5077571;28;20528;-81
2023/12/21 11:25:24;;;;;;;0.40;0.30;;;7.40;99.90;;;;;;5074354;28;20457;-82
2023/12/21 11:27:53;;;;;;;0.40;0.20;;;7.50;99.90;;;;;;5076981;28;21009;-81
2023/12/21 11:30:22;;;;;;;0.43;0.30;;;7.50;99.90;;;;;;5085228;28;20541;-81
2023/12/21 11:32:49;;;;;;;0.40;0.20;;;7.50;99.90;;;;;;5069482;28;20448;-82
2023/12/21 11:35:20;;;;;;;0.40;0.30;;;7.60;99.90;;;;;;5077021;28;20451;-82
2023/12/21 11:37:51;;;;;;;0.50;0.40;;;7.60;99.90;;;;;;5069268;28;20474;-82
2023/12/21 11:40:19;;;;;;;0.40;0.20;;;7.60;99.90;;;;;;5075902;28;20507;-82
2023/12/21 11:42:48;;;;;;;0.67;0.30;;;7.60;99.90;;;;;;5068152;28;20447;-83
2023/12/21 11:45:24;;;;;;;0.30;0.20;;;7.60;99.90;;;;;;5072263;28;20488;-82
2023/12/21 11:47:53;;;;;;;0.50;0.23;;;7.70;99.90;;;;;;5077917;28;20481;-81
2023/12/21 11:50:23;;;;;;;0.40;0.20;;;7.70;99.90;;;;;;5070285;28;20467;-81
2023/12/21 11:52:51;;;;;;;0.40;0.30;;;7.80;99.90;;;;;;5070211;28;20538;-82
2023/12/21 11:55:25;;;;;;;0.30;0.20;;;7.70;99.90;;;;;;5074336;28;20483;-82
2023/12/21 11:58:07;;;;;;;0.50;0.27;;;7.70;99.90;;;;;;5069287;28;20458;-87
2023/12/21 12:00:34;;;;;;;0.40;0.23;;;7.70;99.90;;;;;;5074040;28;20466;-81
2023/12/21 12:03:02;;;;;;;0.47;0.30;;;7.80;99.90;;;;;;5084624;28;20520;-82
2023/12/21 12:05:30;;;;;;;0.40;0.20;;;7.80;99.90;;;;;;5071916;28;20653;-82
2023/12/21 12:07:58;;;;;;;0.40;0.30;;;7.70;99.90;;;;;;5074965;28;21005;-81
2023/12/21 12:10:25;;;;;;;0.40;0.30;;;7.70;99.90;;;;;;5069659;28;20888;-81
2023/12/21 12:12:52;;;;;;;0.70;0.40;;;7.70;99.90;;;;;;5072381;28;20451;-81
2023/12/21 12:15:20;;;;;;;0.90;0.40;;;7.60;99.90;;;;;;5079577;28;20542;-81
2023/12/21 12:17:47;;;;;;;0.40;0.30;;;7.50;99.90;;;;;;5074125;28;20551;-82
2023/12/21 12:20:14;;;;;;;0.63;0.20;;;7.50;99.90;;;;;;5080538;28;20497;-81
2023/12/21 12:22:42;;;;;;;0.50;0.30;;;7.40;99.90;;;;;;5076494;28;20455;-82
2023/12/21 12:25:11;;;;;;;0.30;0.20;;;7.30;99.90;;;;;;5068374;28;21100;-82
2023/12/21 12:27:38;;;;;;;0.50;0.20;;;7.20;99.90;;;;;;5084551;28;20886;-81
2023/12/21 12:30:06;;;;;;;0.40;0.20;;;7.20;99.90;;;;;;5077340;28;20819;-82
2023/12/21 12:32:33;;;;;;;0.67;0.20;;;7.10;99.90;;;;;;5080965;28;20509;-82
2023/12/21 12:35:00;;;;;;;0.30;0.20;;;7.10;99.90;;;;;;5076445;28;20455;-82
2023/12/21 12:37:27;;;;;;;1.40;0.30;;;7.00;99.90;;;;;;5074124;28;20461;-81
2023/12/21 12:39:54;;;;;;;0.50;0.30;;;7.00;99.90;;;;;;5069516;28;20968;-81
2023/12/21 12:42:23;;;;;;;0.40;0.20;;;6.90;99.90;;;;;;5065739;28;20567;-81
2023/12/21 12:44:52;;;;;;;0.33;0.20;;;7.00;99.90;;;;;;5069354;28;20520;-81
2023/12/21 12:47:20;;;;;;;0.47;0.47;;;7.00;99.90;;;;;;5067516;28;20483;-80
2023/12/21 12:49:47;;;;;;;0.40;0.20;;;7.00;99.90;;;;;;5078099;28;20471;-81
2023/12/21 12:52:17;;;;;;;0.40;0.20;;;6.90;99.90;;;;;;5078720;28;20457;-82
2023/12/21 12:54:45;;;;;;;0.37;0.20;;;6.90;99.90;;;;;;5083795;28;20833;-82
2023/12/21 12:57:12;;;;;;;0.97;0.20;;;6.90;99.90;;;;;;5082356;28;21206;-82
2023/12/21 12:59:40;;;;;;;0.30;0.20;;;6.90;99.90;;;;;;5075042;28;20520;-82